createdAt,value
2018-07-30T00:00:47.349Z,49.82
2018-07-30T00:03:20.926Z,50.09
2018-07-30T00:05:55.353Z,50.15
2018-07-30T00:08:28.163Z,50.51
2018-07-30T00:11:03.223Z,50.94
2018-07-30T00:13:36.810Z,51.25
2018-07-30T00:16:13.110Z,51.26
2018-07-30T00:18:48.830Z,51.07
2018-07-30T00:21:22.578Z,51.11
2018-07-30T00:23:55.353Z,50.79
2018-07-30T00:26:33.771Z,50.56
2018-07-30T00:29:06.690Z,50.45
2018-07-30T00:31:39.376Z,50.36
2018-07-30T00:34:13.446Z,50.36
2018-07-30T00:36:46.164Z,50.36
2018-07-30T00:39:18.933Z,50.15
2018-07-30T00:41:53.093Z,49.47
2018-07-30T00:44:25.701Z,49.35
2018-07-30T00:46:58.763Z,49.27
2018-07-30T00:49:32.203Z,49.66
2018-07-30T00:52:05.258Z,50.00
2018-07-30T00:54:38.405Z,50.12
2018-07-30T00:57:12.574Z,50.58
2018-07-30T00:59:45.182Z,50.79
2018-07-30T01:02:17.967Z,51.61
2018-07-30T01:04:52.077Z,51.87
2018-07-30T01:07:25.642Z,51.98
2018-07-30T01:09:59.184Z,52.78
2018-07-30T01:12:33.163Z,53.39
2018-07-30T01:15:06.760Z,53.64
2018-07-30T01:17:41.465Z,53.89
2018-07-30T01:20:17.120Z,54.37
2018-07-30T01:22:50.675Z,55.00
2018-07-30T01:25:23.420Z,55.17
2018-07-30T01:28:00.439Z,54.91
2018-07-30T01:30:33.239Z,54.97
2018-07-30T01:33:05.958Z,54.59
2018-07-30T01:35:41.578Z,54.69
2018-07-30T01:38:15.273Z,55.81
2018-07-30T01:40:48.060Z,57.11
2018-07-30T01:43:22.028Z,57.35
2018-07-30T01:45:54.641Z,57.86
2018-07-30T01:48:27.535Z,58.55
2018-07-30T01:51:02.625Z,59.00
2018-07-30T01:53:35.420Z,60.94
2018-07-30T01:56:08.004Z,61.25
2018-07-30T01:58:45.693Z,62.65
2018-07-30T02:01:18.557Z,62.36
2018-07-30T02:03:52.569Z,63.15
2018-07-30T02:06:28.319Z,63.33
2018-07-30T02:09:01.144Z,63.57
2018-07-30T02:11:33.674Z,63.43
2018-07-30T02:14:08.550Z,63.79
2018-07-30T02:16:41.305Z,64.24
2018-07-30T02:19:14.113Z,64.37
2018-07-30T02:21:47.277Z,64.48
2018-07-30T02:24:20.147Z,64.27
2018-07-30T02:26:52.829Z,64.28
2018-07-30T02:29:26.430Z,64.40
2018-07-30T02:31:59.110Z,64.51
2018-07-30T02:34:32.551Z,64.92
2018-07-30T02:37:07.769Z,64.97
2018-07-30T02:39:40.671Z,65.44
2018-07-30T02:42:13.467Z,65.17
2018-07-30T02:44:47.018Z,65.02
2018-07-30T02:47:19.731Z,64.87
2018-07-30T02:49:52.494Z,64.74
2018-07-30T02:52:25.564Z,64.67
2018-07-30T02:54:58.878Z,64.76
2018-07-30T02:57:34.663Z,64.74
2018-07-30T03:00:08.859Z,64.99
2018-07-30T03:02:41.966Z,65.29
2018-07-30T03:05:15.640Z,65.73
2018-07-30T03:07:49.725Z,65.59
2018-07-30T03:10:22.571Z,65.49
2018-07-30T03:12:55.438Z,65.72
2018-07-30T03:15:30.275Z,66.00
2018-07-30T03:18:03.183Z,66.54
2018-07-30T03:20:35.944Z,66.55
2018-07-30T03:23:08.955Z,66.64
2018-07-30T03:25:41.934Z,66.88
2018-07-30T03:28:15.340Z,66.95
2018-07-30T03:30:49.323Z,66.90
2018-07-30T03:33:22.138Z,67.11
2018-07-30T03:35:54.702Z,67.51
2018-07-30T03:38:29.191Z,67.76
2018-07-30T03:41:01.893Z,68.06
2018-07-30T03:43:34.703Z,68.34
2018-07-30T03:46:08.242Z,68.56
2018-07-30T03:48:40.866Z,68.67
2018-07-30T03:51:13.611Z,68.77
2018-07-30T03:53:46.669Z,68.82
2018-07-30T03:56:19.410Z,68.83
2018-07-30T03:58:52.038Z,69.62
2018-07-30T04:01:24.987Z,69.59
2018-07-30T04:03:57.857Z,70.29
2018-07-30T04:06:34.195Z,70.10
2018-07-30T04:09:08.727Z,69.94
2018-07-30T04:11:41.422Z,70.07
2018-07-30T04:14:14.072Z,70.48
2018-07-30T04:16:50.834Z,69.97
2018-07-30T04:19:23.518Z,69.91
2018-07-30T04:21:57.183Z,69.98
2018-07-30T04:24:30.267Z,70.09
2018-07-30T04:27:04.462Z,70.17
2018-07-30T04:29:38.731Z,70.35
2018-07-30T04:32:11.938Z,70.33
2018-07-30T04:34:44.606Z,70.21
2018-07-30T04:37:18.107Z,70.13
2018-07-30T04:39:50.806Z,70.03
2018-07-30T04:42:23.452Z,69.89
2018-07-30T04:44:56.285Z,69.73
2018-07-30T04:47:29.594Z,69.54
2018-07-30T04:50:02.378Z,69.38
2018-07-30T04:52:35.031Z,68.85
2018-07-30T04:55:08.146Z,68.71
2018-07-30T04:57:41.643Z,68.33
2018-07-30T05:00:15.821Z,68.17
2018-07-30T05:02:49.783Z,67.93
2018-07-30T05:05:22.954Z,67.80
2018-07-30T05:07:55.588Z,67.68
2018-07-30T05:10:29.377Z,67.55
2018-07-30T05:13:01.997Z,67.28
2018-07-30T05:15:34.837Z,66.90
2018-07-30T05:18:08.139Z,66.45
2018-07-30T05:20:42.527Z,65.80
2018-07-30T05:23:16.470Z,65.04
2018-07-30T05:25:54.029Z,64.66
2018-07-30T05:28:27.722Z,64.46
2018-07-30T05:31:00.584Z,63.88
2018-07-30T05:33:33.955Z,63.61
2018-07-30T05:36:06.734Z,63.61
2018-07-30T05:38:40.190Z,63.19
2018-07-30T05:41:13.928Z,62.26
2018-07-30T05:43:46.933Z,61.85
2018-07-30T05:46:19.716Z,61.52
2018-07-30T05:48:55.319Z,61.32
2018-07-30T05:51:28.218Z,60.60
2018-07-30T05:54:01.301Z,59.68
2018-07-30T05:56:34.758Z,58.56
2018-07-30T05:59:08.143Z,57.10
2018-07-30T06:01:41.823Z,52.86
2018-07-30T06:04:16.765Z,50.99
2018-07-30T06:06:52.917Z,49.76
2018-07-30T06:09:25.622Z,48.70
2018-07-30T06:12:02.636Z,47.94
2018-07-30T06:14:37.340Z,47.27
2018-07-30T06:17:10.117Z,46.50
2018-07-30T06:19:45.401Z,46.01
2018-07-30T06:22:20.756Z,45.62
2018-07-30T06:24:57.727Z,45.33
2018-07-30T06:27:31.676Z,44.95
2018-07-30T06:30:07.894Z,44.73
2018-07-30T06:32:41.363Z,44.77
2018-07-30T06:35:15.115Z,44.37
2018-07-30T06:37:48.965Z,44.25
2018-07-30T06:40:23.531Z,44.32
2018-07-30T06:43:14.820Z,43.55
2018-07-30T06:45:50.277Z,43.10
2018-07-30T06:48:24.020Z,42.30
2018-07-30T06:50:57.239Z,41.19
2018-07-30T06:53:31.067Z,40.90
2018-07-30T06:56:08.335Z,40.71
2018-07-30T06:58:41.425Z,40.20
2018-07-30T07:01:14.986Z,39.96
2018-07-30T07:03:48.359Z,39.44
2018-07-30T07:06:24.633Z,39.46
2018-07-30T07:08:58.288Z,39.12
2018-07-30T07:11:31.935Z,39.50
2018-07-30T07:14:06.177Z,39.46
2018-07-30T07:16:39.122Z,39.91
2018-07-30T07:19:13.107Z,40.08
2018-07-30T07:21:46.764Z,39.74
2018-07-30T07:24:21.420Z,39.71
2018-07-30T07:26:54.961Z,39.34
2018-07-30T07:29:32.658Z,38.91
2018-07-30T07:32:07.642Z,38.87
2018-07-30T07:34:41.507Z,38.78
2018-07-30T07:37:16.434Z,38.12
2018-07-30T07:39:51.971Z,38.30
2018-07-30T07:42:24.651Z,38.05
2018-07-30T07:45:05.365Z,37.45
2018-07-30T07:47:49.662Z,37.00
2018-07-30T07:50:25.420Z,35.24
2018-07-30T07:53:17.406Z,34.84
2018-07-30T07:56:53.751Z,35.63
2018-07-30T07:59:27.233Z,35.57
2018-07-30T08:02:03.935Z,35.32
2018-07-30T08:04:37.100Z,35.38
2018-07-30T08:07:12.042Z,35.21
2018-07-30T08:09:46.899Z,35.13
2018-07-30T08:12:20.937Z,35.45
2018-07-30T08:14:54.633Z,35.35
2018-07-30T08:17:27.689Z,35.56
2018-07-30T08:20:04.301Z,35.91
2018-07-30T08:22:38.130Z,35.78
2018-07-30T08:25:12.853Z,35.67
2018-07-30T08:27:48.245Z,35.25
2018-07-30T08:30:23.014Z,35.18
2018-07-30T08:32:56.791Z,35.76
2018-07-30T08:35:29.476Z,36.10
2018-07-30T08:38:04.137Z,36.36
2018-07-30T08:40:39.977Z,36.37
2018-07-30T08:43:12.962Z,36.22
2018-07-30T08:45:45.671Z,36.09
2018-07-30T08:48:18.954Z,36.83
2018-07-30T08:50:52.877Z,36.83
2018-07-30T08:53:26.040Z,37.09
2018-07-30T08:56:02.895Z,37.37
2018-07-30T08:58:37.208Z,37.11
2018-07-30T09:01:10.606Z,37.14
2018-07-30T09:03:45.782Z,37.72
2018-07-30T09:06:20.470Z,37.92
2018-07-30T09:08:56.159Z,37.83
2018-07-30T09:11:34.367Z,37.72
2018-07-30T09:14:09.395Z,37.31
2018-07-30T09:16:51.990Z,35.96
2018-07-30T09:19:25.013Z,35.75
2018-07-30T09:22:00.106Z,36.15
2018-07-30T09:24:33.596Z,35.54
2018-07-30T09:27:06.513Z,34.15
2018-07-30T09:29:39.311Z,33.01
2018-07-30T09:32:13.260Z,33.47
2018-07-30T09:34:49.354Z,32.46
2018-07-30T09:37:22.681Z,31.59
2018-07-30T09:39:55.385Z,30.98
2018-07-30T09:42:28.346Z,30.97
2018-07-30T09:45:04.394Z,29.80
2018-07-30T09:47:40.248Z,29.60
2018-07-30T09:50:16.916Z,30.42
2018-07-30T09:52:50.460Z,30.55
2018-07-30T09:55:23.223Z,30.21
2018-07-30T09:57:58.081Z,29.97
2018-07-30T10:00:36.375Z,29.84
2018-07-30T10:03:10.182Z,30.22
2018-07-30T10:05:46.331Z,30.61
2018-07-30T10:08:19.285Z,30.56
2018-07-30T10:10:55.458Z,30.23
2018-07-30T10:13:29.041Z,29.87
2018-07-30T10:16:02.086Z,30.14
2018-07-30T10:18:35.007Z,29.97
2018-07-30T10:21:12.146Z,30.05
2018-07-30T10:23:47.000Z,30.29
2018-07-30T10:26:19.975Z,30.21
2018-07-30T10:28:54.836Z,30.67
2018-07-30T10:31:31.039Z,30.57
2018-07-30T10:34:06.524Z,29.48
2018-07-30T10:36:41.963Z,28.82
2018-07-30T10:39:15.466Z,28.15
2018-07-30T10:41:49.195Z,27.92
2018-07-30T10:44:24.490Z,28.13
2018-07-30T10:47:00.128Z,28.75
2018-07-30T10:49:37.272Z,28.56
2018-07-30T10:52:10.751Z,27.74
2018-07-30T10:54:46.366Z,27.52
2018-07-30T10:57:23.578Z,27.30
2018-07-30T11:00:07.644Z,27.07
2018-07-30T11:02:43.358Z,26.92
2018-07-30T11:05:19.698Z,26.03
2018-07-30T11:07:57.464Z,25.81
2018-07-30T11:10:34.353Z,25.43
2018-07-30T11:13:12.011Z,25.43
2018-07-30T11:15:47.794Z,24.82
2018-07-30T11:18:22.920Z,24.19
2018-07-30T11:20:56.515Z,24.77
2018-07-30T11:23:30.870Z,24.60
2018-07-30T11:26:06.143Z,24.65
2018-07-30T11:28:40.555Z,24.62
2018-07-30T11:31:16.583Z,23.57
2018-07-30T11:33:52.789Z,23.42
2018-07-30T11:36:25.603Z,23.29
2018-07-30T11:39:00.411Z,23.31
2018-07-30T11:41:35.241Z,22.84
2018-07-30T11:44:09.236Z,22.15
2018-07-30T11:46:42.163Z,21.56
2018-07-30T11:49:17.769Z,22.10
2018-07-30T11:51:51.510Z,23.98
2018-07-30T11:54:29.828Z,24.73
2018-07-30T11:57:06.734Z,24.46
2018-07-30T11:59:43.514Z,25.28
2018-07-30T12:02:23.444Z,26.08
2018-07-30T12:05:01.224Z,26.19
2018-07-30T12:07:35.280Z,25.96
2018-07-30T12:10:09.390Z,25.21
2018-07-30T12:12:43.419Z,24.88
2018-07-30T12:15:17.824Z,24.04
2018-07-30T12:17:53.571Z,23.75
2018-07-30T12:20:27.553Z,23.73
2018-07-30T12:23:01.062Z,24.52
2018-07-30T12:25:33.799Z,25.14
2018-07-30T12:28:08.530Z,25.57
2018-07-30T12:30:45.594Z,25.11
2018-07-30T12:33:20.578Z,25.26
2018-07-30T12:35:56.326Z,25.51
2018-07-30T12:38:30.359Z,24.92
2018-07-30T12:41:03.711Z,24.85
2018-07-30T12:43:36.581Z,24.10
2018-07-30T12:46:11.590Z,23.50
2018-07-30T12:48:44.595Z,24.17
2018-07-30T12:51:19.215Z,24.45
2018-07-30T12:53:56.028Z,24.40
2018-07-30T12:56:29.719Z,24.41
2018-07-30T12:59:02.491Z,24.26
2018-07-30T13:01:38.317Z,24.01
2018-07-30T13:04:13.353Z,23.48
2018-07-30T13:06:49.592Z,22.86
2018-07-30T13:09:25.594Z,22.15
2018-07-30T13:12:04.515Z,21.63
2018-07-30T13:14:38.322Z,20.90
2018-07-30T13:17:12.105Z,20.64
2018-07-30T13:19:45.590Z,21.09
2018-07-30T13:22:24.169Z,21.43
2018-07-30T13:24:58.843Z,21.43
2018-07-30T13:27:36.165Z,21.65
2018-07-30T13:30:14.829Z,21.86
2018-07-30T13:32:49.453Z,21.75
2018-07-30T13:35:22.212Z,21.79
2018-07-30T13:37:56.291Z,22.00
2018-07-30T13:40:32.324Z,22.08
2018-07-30T13:43:27.381Z,21.56
2018-07-30T13:46:15.782Z,22.66
2018-07-30T13:48:49.994Z,23.65
2018-07-30T13:51:25.623Z,23.79
2018-07-30T13:53:58.482Z,23.44
2018-07-30T13:56:31.303Z,22.87
2018-07-30T13:59:07.763Z,22.67
2018-07-30T14:01:47.477Z,22.78
2018-07-30T14:04:26.245Z,23.18
2018-07-30T14:07:00.938Z,23.46
2018-07-30T14:09:35.731Z,24.18
2018-07-30T14:12:12.687Z,24.35
2018-07-30T14:14:47.296Z,24.44
2018-07-30T14:17:22.475Z,23.97
2018-07-30T14:19:56.474Z,23.82
2018-07-30T14:22:32.503Z,23.24
2018-07-30T14:25:06.104Z,22.33
2018-07-30T14:27:41.701Z,21.30
2018-07-30T14:30:16.494Z,20.57
2018-07-30T14:32:49.535Z,19.93
2018-07-30T14:35:24.476Z,19.14
2018-07-30T14:37:58.356Z,19.15
2018-07-30T14:40:31.118Z,18.08
2018-07-30T14:43:10.541Z,17.88
2018-07-30T14:45:45.919Z,17.93
2018-07-30T14:48:19.541Z,18.41
2018-07-30T14:50:56.985Z,18.50
2018-07-30T14:53:33.581Z,18.73
2018-07-30T14:56:07.336Z,19.18
2018-07-30T14:58:41.791Z,20.18
2018-07-30T15:01:16.045Z,20.71
2018-07-30T15:03:52.856Z,20.58
2018-07-30T15:06:27.094Z,20.89
2018-07-30T15:09:32.234Z,21.41
2018-07-30T15:12:31.390Z,21.57
2018-07-30T15:15:18.944Z,21.52
2018-07-30T15:17:54.439Z,21.97
2018-07-30T15:20:27.275Z,21.75
2018-07-30T15:23:01.828Z,21.06
2018-07-30T15:25:35.113Z,20.18
2018-07-30T15:28:08.833Z,19.89
2018-07-30T15:30:45.157Z,19.62
2018-07-30T15:33:18.935Z,19.10
2018-07-30T15:35:52.136Z,18.54
2018-07-30T15:38:25.536Z,18.47
2018-07-30T15:40:59.278Z,18.35
2018-07-30T15:43:33.556Z,18.60
2018-07-30T15:46:07.631Z,18.94
2018-07-30T15:48:42.168Z,18.79
2018-07-30T15:51:15.119Z,18.10
2018-07-30T15:53:49.238Z,17.06
2018-07-30T15:56:22.615Z,16.57
2018-07-30T15:59:00.848Z,16.37
2018-07-30T16:01:43.256Z,16.50
2018-07-30T16:04:18.953Z,17.62
2018-07-30T16:06:53.119Z,18.26
2018-07-30T16:09:26.376Z,19.12
2018-07-30T16:12:00.376Z,19.33
2018-07-30T16:14:33.571Z,19.24
2018-07-30T16:17:06.583Z,18.57
2018-07-30T16:19:40.669Z,18.30
2018-07-30T16:22:15.014Z,18.36
2018-07-30T16:25:21.205Z,18.51
2018-07-30T16:27:57.084Z,19.54
2018-07-30T16:30:30.971Z,19.47
2018-07-30T16:33:04.622Z,19.28
2018-07-30T16:35:42.146Z,19.50
2018-07-30T16:38:17.095Z,19.63
2018-07-30T16:40:52.777Z,19.26
2018-07-30T16:43:27.326Z,19.14
2018-07-30T16:46:10.253Z,19.97
2018-07-30T16:48:54.852Z,20.95
2018-07-30T16:51:34.614Z,21.21
2018-07-30T16:54:21.076Z,21.18
2018-07-30T16:56:55.749Z,21.01
2018-07-30T16:59:30.061Z,20.67
2018-07-30T17:02:06.437Z,20.51
2018-07-30T17:04:44.892Z,20.83
2018-07-30T17:07:23.860Z,20.41
2018-07-30T17:10:00.860Z,20.02
2018-07-30T17:12:35.393Z,20.05
2018-07-30T17:15:12.354Z,19.82
2018-07-30T17:17:54.839Z,20.28
2018-07-30T17:20:27.983Z,20.59
2018-07-30T17:23:01.325Z,20.77
2018-07-30T17:25:38.068Z,21.02
2018-07-30T17:28:12.354Z,20.98
2018-07-30T17:30:45.828Z,21.46
2018-07-30T17:33:21.036Z,21.55
2018-07-30T17:35:53.911Z,22.06
2018-07-30T17:38:29.014Z,22.65
2018-07-30T17:41:07.207Z,23.40
2018-07-30T17:43:40.733Z,23.56
2018-07-30T17:46:19.121Z,23.63
2018-07-30T17:48:55.083Z,24.10
2018-07-30T17:51:31.271Z,24.21
2018-07-30T17:54:06.464Z,24.57
2018-07-30T17:56:41.419Z,24.61
2018-07-30T17:59:15.194Z,24.45
2018-07-30T18:01:50.180Z,24.62
2018-07-30T18:04:23.729Z,24.33
2018-07-30T18:07:09.043Z,24.83
2018-07-30T18:09:49.399Z,25.27
2018-07-30T18:12:24.206Z,25.20
2018-07-30T18:15:00.391Z,25.20
2018-07-30T18:17:46.456Z,25.29
2018-07-30T18:20:20.061Z,25.33
2018-07-30T18:22:57.443Z,25.30
2018-07-30T18:25:30.610Z,25.52
2018-07-30T18:28:10.955Z,25.42
2018-07-30T18:30:49.962Z,25.98
2018-07-30T18:33:29.763Z,26.06
2018-07-30T18:36:12.845Z,26.24
2018-07-30T18:39:12.383Z,26.42
2018-07-30T18:41:49.073Z,26.47
2018-07-30T18:44:21.981Z,27.03
2018-07-30T18:47:01.131Z,27.25
2018-07-30T18:49:37.247Z,27.57
2018-07-30T18:52:11.970Z,27.90
2018-07-30T18:54:54.492Z,28.30
2018-07-30T18:57:37.941Z,28.54
2018-07-30T19:00:12.265Z,28.86
2018-07-30T19:02:48.750Z,29.03
2018-07-30T19:05:23.385Z,29.30
2018-07-30T19:07:58.933Z,29.23
2018-07-30T19:10:36.462Z,29.85
2018-07-30T19:13:13.080Z,30.29
2018-07-30T19:15:46.254Z,30.98
2018-07-30T19:18:39.824Z,31.32
2018-07-30T19:21:17.353Z,31.84
2018-07-30T19:23:51.803Z,32.89
2018-07-30T19:26:27.766Z,32.52
2018-07-30T19:29:05.245Z,32.82
2018-07-30T19:31:41.219Z,34.07
2018-07-30T19:34:18.218Z,33.96
2018-07-30T19:36:53.075Z,34.32
2018-07-30T19:39:31.165Z,34.65
2018-07-30T19:42:13.436Z,35.51
2018-07-30T19:44:49.523Z,36.17
2018-07-30T19:47:23.771Z,36.81
2018-07-30T19:49:59.840Z,37.40
2018-07-30T19:52:40.463Z,37.75
2018-07-30T19:55:15.410Z,38.37
2018-07-30T19:57:53.461Z,38.69
2018-07-30T20:00:35.489Z,39.04
2018-07-30T20:03:22.189Z,39.24
2018-07-30T20:05:58.079Z,39.70
2018-07-30T20:08:39.393Z,40.06
2018-07-30T20:11:17.325Z,40.61
2018-07-30T20:13:52.429Z,41.31
2018-07-30T20:16:39.921Z,42.04
2018-07-30T20:19:14.463Z,42.44
2018-07-30T20:21:47.278Z,42.59
2018-07-30T20:24:22.614Z,43.33
2018-07-30T20:27:02.797Z,43.44
2018-07-30T20:29:39.952Z,43.79
2018-07-30T20:32:17.421Z,44.07
2018-07-30T20:34:56.743Z,44.31
2018-07-30T20:37:32.243Z,45.17
2018-07-30T20:40:10.722Z,46.26
2018-07-30T20:42:47.162Z,47.37
2018-07-30T20:45:22.847Z,47.78
2018-07-30T20:48:08.295Z,48.07
2018-07-30T20:50:41.491Z,48.38
2018-07-30T20:53:15.946Z,48.87
2018-07-30T20:55:48.783Z,49.02
2018-07-30T20:58:21.632Z,49.11
2018-07-30T21:01:01.881Z,49.49
2018-07-30T21:03:34.899Z,49.72
2018-07-30T21:06:08.721Z,50.04
2018-07-30T21:08:41.943Z,50.74
2018-07-30T21:11:15.360Z,50.96
2018-07-30T21:13:48.071Z,50.81
2018-07-30T21:16:24.295Z,51.55
2018-07-30T21:18:57.387Z,51.89
2018-07-30T21:21:31.190Z,52.09
2018-07-30T21:24:04.696Z,52.27
2018-07-30T21:26:40.198Z,52.12
2018-07-30T21:29:14.143Z,52.13
2018-07-30T21:31:47.464Z,52.04
2018-07-30T21:34:22.068Z,52.45
2018-07-30T21:36:55.032Z,52.96
2018-07-30T21:39:29.379Z,53.74
2018-07-30T21:42:02.988Z,54.02
2018-07-30T21:44:37.438Z,53.40
2018-07-30T21:47:14.610Z,52.37
2018-07-30T21:49:50.504Z,52.15
2018-07-30T21:52:27.918Z,52.25
2018-07-30T21:55:02.361Z,52.10
2018-07-30T21:57:37.339Z,52.23
2018-07-30T22:00:24.862Z,52.33
2018-07-30T22:02:58.001Z,52.39
2018-07-30T22:05:39.990Z,52.34
2018-07-30T22:08:13.619Z,52.45
2018-07-30T22:10:47.375Z,52.54
2018-07-30T22:13:20.534Z,52.77
2018-07-30T22:15:55.886Z,52.55
2018-07-30T22:18:29.745Z,52.54
2018-07-30T22:21:04.200Z,52.41
2018-07-30T22:23:38.105Z,51.67
2018-07-30T22:26:12.679Z,51.51
2018-07-30T22:28:46.764Z,51.74
2018-07-30T22:31:20.530Z,51.82
2018-07-30T22:33:56.103Z,52.35
2018-07-30T22:36:29.228Z,52.57
2018-07-30T22:39:11.681Z,52.78
2018-07-30T22:41:47.378Z,53.04
2018-07-30T22:44:21.994Z,53.16
2018-07-30T22:46:56.059Z,53.43
2018-07-30T22:49:29.628Z,53.47
2018-07-30T22:52:04.176Z,53.95
2018-07-30T22:54:38.410Z,54.31
2018-07-30T22:57:19.286Z,55.43
2018-07-30T22:59:52.800Z,55.55
2018-07-30T23:02:26.166Z,56.56
2018-07-30T23:05:01.055Z,57.23
2018-07-30T23:07:33.920Z,57.61
2018-07-30T23:10:11.660Z,57.72
2018-07-30T23:12:44.579Z,58.60
2018-07-30T23:15:18.670Z,58.35
2018-07-30T23:17:52.239Z,58.67
2018-07-30T23:20:25.235Z,59.07
2018-07-30T23:23:05.640Z,59.25
2018-07-30T23:25:38.516Z,59.15
2018-07-30T23:28:11.384Z,59.34
2018-07-30T23:30:48.603Z,59.56
2018-07-30T23:33:23.569Z,60.45
2018-07-30T23:35:56.343Z,61.57
2018-07-30T23:38:31.154Z,61.94
2018-07-30T23:41:04.934Z,61.93
2018-07-30T23:43:38.944Z,62.08
2018-07-30T23:46:16.623Z,62.42
2018-07-30T23:48:51.185Z,62.81
2018-07-30T23:51:25.030Z,62.94
2018-07-30T23:54:00.080Z,63.28
2018-07-30T23:56:33.032Z,64.16
2018-07-30T23:59:06.577Z,64.67
